createdAt,value
2022-10-05T00:00:58.755Z,99728.66
2022-10-05T00:03:39.362Z,99727.88
2022-10-05T00:06:09.611Z,99726.45
2022-10-05T00:08:37.275Z,99717.91
2022-10-05T00:11:07.956Z,99714.64
2022-10-05T00:13:36.291Z,99709.08
2022-10-05T00:16:14.806Z,99704.75
2022-10-05T00:18:47.542Z,99699.59
2022-10-05T00:21:21.291Z,99701.20
2022-10-05T00:23:48.800Z,99695.94
2022-10-05T00:26:22.568Z,99691.96
2022-10-05T00:28:50.701Z,99684.20
2022-10-05T00:31:24.280Z,99674.26
2022-10-05T00:33:51.675Z,99671.82
2022-10-05T00:36:19.655Z,99671.66
2022-10-05T00:38:46.443Z,99667.41
2022-10-05T00:41:43.896Z,99662.46
2022-10-05T00:44:25.498Z,99661.84
2022-10-05T00:47:28.179Z,99662.43
2022-10-05T00:50:36.614Z,99661.66
2022-10-05T00:53:25.576Z,99659.98
2022-10-05T00:56:22.102Z,99655.95
2022-10-05T00:58:58.069Z,99647.73
2022-10-05T01:01:44.075Z,99640.41
2022-10-05T01:04:37.744Z,99633.83
2022-10-05T01:07:48.026Z,99629.23
2022-10-05T01:10:29.678Z,99631.63
2022-10-05T01:13:27.095Z,99626.50
2022-10-05T01:16:13.750Z,99624.38
2022-10-05T01:18:59.573Z,99626.69
2022-10-05T01:21:28.130Z,99627.23
2022-10-05T01:24:27.798Z,99628.48
2022-10-05T01:27:00.726Z,99628.73
2022-10-05T01:29:43.434Z,99623.85
2022-10-05T01:32:19.041Z,99629.98
2022-10-05T01:35:00.514Z,99636.93
2022-10-05T01:37:57.591Z,99643.94
2022-10-05T01:40:27.325Z,99641.44
2022-10-05T01:43:06.251Z,99648.94
2022-10-05T01:45:59.545Z,99649.59
2022-10-05T01:49:06.133Z,99644.46
2022-10-05T01:52:12.182Z,99636.13
2022-10-05T01:55:00.767Z,99632.81
2022-10-05T01:57:42.321Z,99628.73
2022-10-05T02:00:14.864Z,99627.71
2022-10-05T02:02:50.204Z,99627.11
2022-10-05T02:05:45.152Z,99622.81
2022-10-05T02:08:27.139Z,99618.97
2022-10-05T02:11:09.061Z,99621.39
2022-10-05T02:14:07.158Z,99627.16
2022-10-05T02:17:01.600Z,99623.85
2022-10-05T02:19:41.233Z,99623.36
2022-10-05T02:22:30.544Z,99628.00
2022-10-05T02:25:00.833Z,99629.71
2022-10-05T02:28:17.975Z,99625.29
2022-10-05T02:30:51.712Z,99625.75
2022-10-05T02:33:32.051Z,99625.34
2022-10-05T02:36:15.404Z,99623.70
2022-10-05T02:39:00.089Z,99621.16
2022-10-05T02:41:52.755Z,99622.29
2022-10-05T02:44:24.089Z,99613.60
2022-10-05T02:46:58.301Z,99610.58
2022-10-05T02:50:00.784Z,99613.86
2022-10-05T02:52:37.470Z,99609.81
2022-10-05T02:55:19.413Z,99611.00
2022-10-05T02:57:49.189Z,99612.02
2022-10-05T03:00:20.017Z,99608.84
2022-10-05T03:03:01.122Z,99607.42
2022-10-05T03:05:37.219Z,99606.48
2022-10-05T03:08:28.366Z,99607.67
2022-10-05T03:11:16.694Z,99602.36
2022-10-05T03:14:11.895Z,99594.73
2022-10-05T03:17:05.895Z,99589.02
2022-10-05T03:19:50.119Z,99587.82
2022-10-05T03:22:46.427Z,99584.15
2022-10-05T03:25:47.196Z,99585.33
2022-10-05T03:28:40.495Z,99577.13
2022-10-05T03:31:28.382Z,99573.70
2022-10-05T03:34:05.725Z,99575.63
2022-10-05T03:36:37.844Z,99571.39
2022-10-05T03:39:34.586Z,99563.86
2022-10-05T03:42:15.970Z,99570.53
2022-10-05T03:44:49.843Z,99573.57
2022-10-05T03:47:35.536Z,99568.34
2022-10-05T03:50:23.369Z,99574.34
2022-10-05T03:53:05.721Z,99581.33
2022-10-05T03:55:56.976Z,99582.28
2022-10-05T03:58:28.380Z,99584.47
2022-10-05T04:01:06.641Z,99586.27
2022-10-05T04:03:48.120Z,99584.06
2022-10-05T04:06:33.526Z,99576.58
2022-10-05T04:09:45.888Z,99574.17
2022-10-05T04:12:42.249Z,99568.28
2022-10-05T04:15:27.144Z,99571.40
2022-10-05T04:18:26.686Z,99570.23
2022-10-05T04:20:58.850Z,99573.27
2022-10-05T04:23:39.345Z,99574.54
2022-10-05T04:26:12.108Z,99571.82
2022-10-05T04:29:04.016Z,99569.63
2022-10-05T04:31:59.205Z,99564.77
2022-10-05T04:34:59.131Z,99560.61
2022-10-05T04:37:49.830Z,99562.97
2022-10-05T04:40:34.547Z,99559.80
2022-10-05T04:43:39.860Z,99559.48
2022-10-05T04:46:31.425Z,99557.23
2022-10-05T04:49:13.729Z,99557.60
2022-10-05T04:52:23.632Z,99555.89
2022-10-05T04:55:29.447Z,99547.42
2022-10-05T04:58:09.707Z,99544.54
2022-10-05T05:00:53.332Z,99543.42
2022-10-05T05:03:46.468Z,99542.02
2022-10-05T05:07:00.518Z,99545.01
2022-10-05T05:09:49.178Z,99542.84
2022-10-05T05:12:36.364Z,99542.43
2022-10-05T05:16:02.105Z,99542.17
2022-10-05T05:19:04.019Z,99551.11
2022-10-05T05:22:08.001Z,99555.71
2022-10-05T05:25:34.809Z,99553.59
2022-10-05T05:28:13.964Z,99550.77
2022-10-05T05:31:16.371Z,99554.11
2022-10-05T05:34:16.302Z,99551.13
2022-10-05T05:36:52.998Z,99552.09
2022-10-05T05:39:50.813Z,99555.88
2022-10-05T05:42:38.880Z,99556.66
2022-10-05T05:45:26.010Z,99557.39
2022-10-05T05:47:56.782Z,99567.60
2022-10-05T05:50:45.537Z,99574.40
2022-10-05T05:53:26.712Z,99576.77
2022-10-05T05:56:00.280Z,99585.11
2022-10-05T05:58:38.199Z,99585.94
2022-10-05T06:01:36.418Z,99585.35
2022-10-05T06:04:16.614Z,99581.74
2022-10-05T06:06:50.596Z,99581.77
2022-10-05T06:09:40.927Z,99590.94
2022-10-05T06:12:45.621Z,99595.67
2022-10-05T06:15:41.666Z,99591.23
2022-10-05T06:18:16.357Z,99588.33
2022-10-05T06:20:59.522Z,99596.42
2022-10-05T06:23:38.598Z,99603.99
2022-10-05T06:26:24.897Z,99603.66
2022-10-05T06:29:05.744Z,99606.23
2022-10-05T06:32:13.257Z,99603.23
2022-10-05T06:35:18.930Z,99604.55
2022-10-05T06:38:19.376Z,99605.16
2022-10-05T06:41:20.101Z,99610.33
2022-10-05T06:44:00.980Z,99612.95
2022-10-05T06:47:16.521Z,99612.98
2022-10-05T06:50:26.392Z,99619.23
2022-10-05T06:53:11.037Z,99616.34
2022-10-05T06:55:51.757Z,99616.48
2022-10-05T06:58:42.466Z,99612.67
2022-10-05T07:01:41.245Z,99616.68
2022-10-05T07:04:24.007Z,99613.74
2022-10-05T07:06:59.583Z,99611.27
2022-10-05T07:09:53.483Z,99610.91
2022-10-05T07:12:47.904Z,99607.13
2022-10-05T07:15:39.858Z,99608.38
2022-10-05T07:18:31.684Z,99607.83
2022-10-05T07:21:03.499Z,99609.21
2022-10-05T07:23:50.399Z,99609.41
2022-10-05T07:26:34.225Z,99608.27
2022-10-05T07:29:27.521Z,99614.13
2022-10-05T07:32:05.181Z,99612.63
2022-10-05T07:35:30.858Z,99615.48
2022-10-05T07:38:07.533Z,99619.21
2022-10-05T07:40:44.574Z,99620.73
2022-10-05T07:44:01.436Z,99618.11
2022-10-05T07:47:03.030Z,99616.77
2022-10-05T07:49:59.078Z,99609.08
2022-10-05T07:52:39.892Z,99611.02
2022-10-05T07:55:21.773Z,99604.94
2022-10-05T07:58:09.484Z,99600.33
2022-10-05T08:01:33.907Z,99598.80
2022-10-05T08:04:13.839Z,99601.34
2022-10-05T08:06:52.188Z,99606.77
2022-10-05T08:09:35.812Z,99612.19
2022-10-05T08:12:22.572Z,99615.58
2022-10-05T08:14:57.707Z,99617.15
2022-10-05T08:17:50.329Z,99621.15
2022-10-05T08:20:39.968Z,99621.11
2022-10-05T08:23:20.404Z,99623.16
2022-10-05T08:26:11.951Z,99618.91
2022-10-05T08:28:52.070Z,99613.25
2022-10-05T08:31:27.079Z,99617.55
2022-10-05T08:34:22.264Z,99616.93
2022-10-05T08:37:32.797Z,99614.65
2022-10-05T08:40:31.789Z,99617.38
2022-10-05T08:43:25.690Z,99619.33
2022-10-05T08:46:07.722Z,99621.76
2022-10-05T08:49:25.778Z,99620.25
2022-10-05T08:52:25.593Z,99618.63
2022-10-05T08:55:53.400Z,99611.23
2022-10-05T08:58:37.497Z,99608.27
2022-10-05T09:01:06.755Z,99604.82
2022-10-05T09:04:04.395Z,99598.23
2022-10-05T09:07:09.417Z,99598.06
2022-10-05T09:09:49.790Z,99596.14
2022-10-05T09:12:47.126Z,99599.38
2022-10-05T09:15:35.938Z,99601.88
2022-10-05T09:18:49.464Z,99603.63
2022-10-05T09:21:54.568Z,99605.84
2022-10-05T09:24:31.983Z,99600.58
2022-10-05T09:27:30.195Z,99594.81
2022-10-05T09:30:30.183Z,99593.64
2022-10-05T09:33:41.024Z,99593.66
2022-10-05T09:36:29.697Z,99589.81
2022-10-05T09:39:19.633Z,99587.05
2022-10-05T09:41:58.563Z,99581.05
2022-10-05T09:44:56.492Z,99577.34
2022-10-05T09:47:50.583Z,99583.16
2022-10-05T09:51:01.890Z,99590.55
2022-10-05T09:54:10.218Z,99595.66
2022-10-05T09:57:03.863Z,99587.56
2022-10-05T09:59:37.923Z,99582.42
2022-10-05T10:02:28.781Z,99585.94
2022-10-05T10:05:29.454Z,99583.36
2022-10-05T10:08:12.750Z,99582.83
2022-10-05T10:11:10.202Z,99585.50
2022-10-05T10:14:00.246Z,99578.77
2022-10-05T10:17:08.119Z,99573.69
2022-10-05T10:20:13.537Z,99571.48
2022-10-05T10:23:19.486Z,99567.99
2022-10-05T10:25:51.895Z,99567.83
2022-10-05T10:28:49.033Z,99564.90
2022-10-05T10:31:58.062Z,99563.03
2022-10-05T10:34:53.080Z,99557.90
2022-10-05T10:37:36.649Z,99557.61
2022-10-05T10:40:42.294Z,99551.37
2022-10-05T10:43:41.700Z,99547.98
2022-10-05T10:46:25.196Z,99540.40
2022-10-05T10:49:28.725Z,99537.70
2022-10-05T10:52:13.358Z,99538.13
2022-10-05T10:55:15.044Z,99543.28
2022-10-05T10:58:12.418Z,99542.95
2022-10-05T11:00:53.826Z,99542.01
2022-10-05T11:03:55.972Z,99539.95
2022-10-05T11:06:48.467Z,99538.25
2022-10-05T11:09:59.501Z,99537.67
2022-10-05T11:13:08.016Z,99533.65
2022-10-05T11:16:15.836Z,99530.40
2022-10-05T11:19:35.073Z,99527.66
2022-10-05T11:22:40.422Z,99525.77
2022-10-05T11:25:29.191Z,99524.27
2022-10-05T11:28:30.622Z,99522.73
2022-10-05T11:31:25.038Z,99521.99
2022-10-05T11:34:25.446Z,99519.34
2022-10-05T11:37:19.366Z,99512.45
2022-10-05T11:40:09.055Z,99511.92
2022-10-05T11:43:15.775Z,99509.86
2022-10-05T11:46:04.974Z,99502.81
2022-10-05T11:48:55.205Z,99496.25
2022-10-05T11:51:50.715Z,99494.33
2022-10-05T11:55:05.797Z,99489.29
2022-10-05T11:57:56.057Z,99493.09
2022-10-05T12:00:32.071Z,99493.11
2022-10-05T12:03:37.943Z,99502.61
2022-10-05T12:06:26.879Z,99503.00
2022-10-05T12:09:06.723Z,99500.95
2022-10-05T12:12:02.633Z,99495.67
2022-10-05T12:15:04.220Z,99498.02
2022-10-05T12:17:56.186Z,99493.64
2022-10-05T12:20:37.747Z,99491.43
2022-10-05T12:23:20.979Z,99494.77
2022-10-05T12:25:58.085Z,99497.82
2022-10-05T12:28:35.779Z,99493.92
2022-10-05T12:31:41.329Z,99491.67
2022-10-05T12:34:17.843Z,99489.19
2022-10-05T12:37:05.188Z,99487.02
2022-10-05T12:39:53.053Z,99482.62
2022-10-05T12:42:43.205Z,99480.45
2022-10-05T12:45:28.407Z,99481.84
2022-10-05T12:48:15.777Z,99480.30
2022-10-05T12:51:16.783Z,99472.48
2022-10-05T12:53:56.931Z,99474.17
2022-10-05T12:56:44.094Z,99473.52
2022-10-05T12:59:22.328Z,99475.52
2022-10-05T13:01:53.943Z,99475.20
2022-10-05T13:04:36.240Z,99476.20
2022-10-05T13:07:12.785Z,99472.33
2022-10-05T13:10:08.486Z,99469.45
2022-10-05T13:12:46.521Z,99465.25
2022-10-05T13:15:22.916Z,99464.05
2022-10-05T13:17:49.594Z,99464.45
2022-10-05T13:20:29.130Z,99458.34
2022-10-05T13:23:20.435Z,99455.48
2022-10-05T13:26:01.201Z,99454.52
2022-10-05T13:28:56.822Z,99453.22
2022-10-05T13:31:28.905Z,99453.87
2022-10-05T13:34:21.354Z,99455.27
2022-10-05T13:37:33.710Z,99450.88
2022-10-05T13:40:36.799Z,99451.34
2022-10-05T13:43:21.991Z,99445.79
2022-10-05T13:46:06.418Z,99446.61
2022-10-05T13:49:00.996Z,99445.48
2022-10-05T13:51:54.548Z,99447.82
2022-10-05T13:54:38.136Z,99448.75
2022-10-05T13:57:13.159Z,99446.70
2022-10-05T13:59:52.079Z,99446.64
2022-10-05T14:02:26.821Z,99446.04
2022-10-05T14:05:22.071Z,99444.61
2022-10-05T14:08:15.280Z,99440.23
2022-10-05T14:10:44.615Z,99435.38
2022-10-05T14:13:26.189Z,99437.80
2022-10-05T14:16:21.486Z,99434.98
2022-10-05T14:19:14.111Z,99435.79
2022-10-05T14:22:12.134Z,99433.70
2022-10-05T14:25:17.671Z,99434.58
2022-10-05T14:28:03.116Z,99430.18
2022-10-05T14:30:32.541Z,99425.71
2022-10-05T14:33:06.121Z,99430.17
2022-10-05T14:35:54.751Z,99426.59
2022-10-05T14:38:26.320Z,99421.91
2022-10-05T14:41:26.678Z,99417.71
2022-10-05T14:44:26.942Z,99419.45
2022-10-05T14:47:00.803Z,99419.20
2022-10-05T14:49:33.586Z,99424.06
2022-10-05T14:52:21.960Z,99422.36
2022-10-05T14:55:00.379Z,99419.81
2022-10-05T14:57:56.609Z,99418.25
2022-10-05T15:00:28.276Z,99412.16
2022-10-05T15:03:16.000Z,99409.98
2022-10-05T15:05:49.371Z,99405.28
2022-10-05T15:08:45.668Z,99407.93
2022-10-05T15:11:46.079Z,99407.90
2022-10-05T15:14:19.112Z,99407.19
2022-10-05T15:16:49.800Z,99404.49
2022-10-05T15:19:26.949Z,99403.00
2022-10-05T15:22:31.975Z,99405.16
2022-10-05T15:25:33.792Z,99402.84
2022-10-05T15:28:27.532Z,99396.55
2022-10-05T15:31:03.341Z,99393.64
2022-10-05T15:33:40.878Z,99391.16
2022-10-05T15:36:18.802Z,99393.43
2022-10-05T15:39:34.892Z,99393.20
2022-10-05T15:42:03.441Z,99393.27
2022-10-05T15:44:51.524Z,99389.95
2022-10-05T15:47:46.086Z,99389.63
2022-10-05T15:50:25.706Z,99385.34
2022-10-05T15:53:16.376Z,99389.07
2022-10-05T15:55:55.698Z,99390.33
2022-10-05T15:58:42.979Z,99386.27
2022-10-05T16:01:39.762Z,99384.00
2022-10-05T16:04:37.569Z,99384.13
2022-10-05T16:07:30.947Z,99382.52
2022-10-05T16:10:24.255Z,99381.34
2022-10-05T16:13:11.133Z,99380.10
2022-10-05T16:16:21.881Z,99382.31
2022-10-05T16:19:07.915Z,99378.83
2022-10-05T16:22:06.153Z,99386.95
2022-10-05T16:24:49.966Z,99390.95
2022-10-05T16:27:50.042Z,99393.42
2022-10-05T16:30:22.923Z,99397.10
2022-10-05T16:33:12.794Z,99399.27
2022-10-05T16:35:52.423Z,99405.79
2022-10-05T16:38:43.870Z,99411.95
2022-10-05T16:41:29.045Z,99406.80
2022-10-05T16:44:11.334Z,99409.17
2022-10-05T16:47:27.224Z,99408.88
2022-10-05T16:50:09.729Z,99412.85
2022-10-05T16:52:41.921Z,99413.59
2022-10-05T16:55:19.709Z,99411.80
2022-10-05T16:57:55.209Z,99409.87
2022-10-05T17:00:23.283Z,99412.35
2022-10-05T17:03:02.409Z,99415.09
2022-10-05T17:06:05.325Z,99413.39
2022-10-05T17:09:01.150Z,99415.48
2022-10-05T17:11:44.379Z,99420.57
2022-10-05T17:14:39.733Z,99421.47
2022-10-05T17:17:33.217Z,99418.10
2022-10-05T17:20:07.536Z,99414.71
2022-10-05T17:22:47.423Z,99416.45
2022-10-05T17:25:24.225Z,99413.38
2022-10-05T17:28:15.000Z,99415.79
2022-10-05T17:30:51.477Z,99411.03
2022-10-05T17:33:21.131Z,99412.55
2022-10-05T17:36:12.444Z,99410.59
2022-10-05T17:39:02.208Z,99410.27
2022-10-05T17:41:31.061Z,99403.27
2022-10-05T17:44:18.727Z,99406.77
2022-10-05T17:46:53.791Z,99404.25
2022-10-05T17:49:47.023Z,99400.30
2022-10-05T17:52:45.129Z,99398.96
2022-10-05T17:55:28.697Z,99390.66
2022-10-05T17:57:59.216Z,99385.14
2022-10-05T18:00:40.810Z,99377.32
2022-10-05T18:03:33.776Z,99380.55
2022-10-05T18:06:42.126Z,99376.17
2022-10-05T18:09:20.729Z,99374.29
2022-10-05T18:12:17.821Z,99372.13
2022-10-05T18:15:10.157Z,99372.92
2022-10-05T18:17:41.748Z,99368.23
2022-10-05T18:20:17.698Z,99369.34
2022-10-05T18:22:48.594Z,99365.59
2022-10-05T18:25:31.295Z,99364.30
2022-10-05T18:28:27.265Z,99357.77
2022-10-05T18:31:29.160Z,99355.66
2022-10-05T18:34:17.976Z,99353.78
2022-10-05T18:37:12.072Z,99357.98
2022-10-05T18:39:55.215Z,99356.59
2022-10-05T18:42:52.873Z,99352.61
2022-10-05T18:45:38.071Z,99357.45
2022-10-05T18:48:37.567Z,99362.90
2022-10-05T18:51:28.229Z,99356.23
2022-10-05T18:54:26.873Z,99357.03
2022-10-05T18:56:55.625Z,99359.42
2022-10-05T18:59:51.310Z,99364.27
2022-10-05T19:02:29.100Z,99361.56
2022-10-05T19:05:47.974Z,99367.14
2022-10-05T19:08:18.025Z,99365.18
2022-10-05T19:10:57.155Z,99356.36
2022-10-05T19:13:36.186Z,99364.23
2022-10-05T19:16:30.348Z,99361.63
2022-10-05T19:19:10.627Z,99363.45
2022-10-05T19:22:10.103Z,99366.79
2022-10-05T19:25:13.307Z,99366.60
2022-10-05T19:27:55.339Z,99363.73
2022-10-05T19:30:50.729Z,99357.58
2022-10-05T19:33:37.143Z,99363.38
2022-10-05T19:36:23.199Z,99360.91
2022-10-05T19:39:08.288Z,99363.15
2022-10-05T19:42:05.708Z,99365.44
2022-10-05T19:44:45.493Z,99368.74
2022-10-05T19:47:28.181Z,99370.89
2022-10-05T19:50:01.561Z,99372.70
2022-10-05T19:52:41.242Z,99373.53
2022-10-05T19:55:12.169Z,99376.08
2022-10-05T19:57:47.269Z,99376.99
2022-10-05T20:00:31.752Z,99377.52
2022-10-05T20:03:22.146Z,99381.25
2022-10-05T20:05:59.125Z,99380.85
2022-10-05T20:08:31.330Z,99383.80
2022-10-05T20:11:13.184Z,99390.42
2022-10-05T20:14:00.563Z,99390.83
2022-10-05T20:16:48.442Z,99394.17
2022-10-05T20:19:34.972Z,99398.41
2022-10-05T20:22:24.213Z,99407.05
2022-10-05T20:24:53.096Z,99412.48
2022-10-05T20:27:48.351Z,99414.14
2022-10-05T20:30:18.534Z,99419.08
2022-10-05T20:32:56.960Z,99426.56
2022-10-05T20:35:27.295Z,99426.90
2022-10-05T20:38:04.287Z,99433.17
2022-10-05T20:40:31.037Z,99435.30
2022-10-05T20:42:58.279Z,99437.38
2022-10-05T20:45:25.303Z,99444.20
2022-10-05T20:47:53.012Z,99444.70
2022-10-05T20:50:21.619Z,99442.57
2022-10-05T20:52:48.222Z,99444.45
2022-10-05T20:55:16.476Z,99445.14
2022-10-05T20:57:45.580Z,99447.73
2022-10-05T21:00:13.132Z,99452.73
2022-10-05T21:02:40.705Z,99449.80
2022-10-05T21:05:12.529Z,99453.69
2022-10-05T21:07:40.318Z,99462.95
2022-10-05T21:10:13.695Z,99465.73
2022-10-05T21:12:41.559Z,99465.89
2022-10-05T21:15:10.891Z,99467.63
2022-10-05T21:17:38.507Z,99469.20
2022-10-05T21:20:05.258Z,99465.97
2022-10-05T21:22:34.989Z,99465.73
2022-10-05T21:25:02.077Z,99469.55
2022-10-05T21:27:29.500Z,99468.34
2022-10-05T21:29:56.424Z,99466.95
2022-10-05T21:32:23.707Z,99470.26
2022-10-05T21:34:50.431Z,99472.53
2022-10-05T21:37:19.318Z,99479.23
2022-10-05T21:39:46.130Z,99485.38
2022-10-05T21:42:12.501Z,99489.86
2022-10-05T21:44:40.055Z,99492.59
2022-10-05T21:47:07.235Z,99493.31
2022-10-05T21:49:37.185Z,99497.30
2022-10-05T21:52:04.732Z,99501.89
2022-10-05T21:54:32.335Z,99508.30
2022-10-05T21:57:00.957Z,99508.86
2022-10-05T21:59:33.139Z,99517.16
2022-10-05T22:02:01.824Z,99523.48
2022-10-05T22:04:28.785Z,99523.86
2022-10-05T22:06:56.082Z,99527.39
2022-10-05T22:09:24.755Z,99531.07
2022-10-05T22:11:51.918Z,99530.65
2022-10-05T22:14:18.719Z,99532.23
2022-10-05T22:16:45.301Z,99535.57
2022-10-05T22:19:19.380Z,99534.21
2022-10-05T22:21:47.754Z,99533.92
2022-10-05T22:24:15.692Z,99531.91
2022-10-05T22:26:47.767Z,99527.98
2022-10-05T22:29:17.213Z,99530.95
2022-10-05T22:31:48.167Z,99532.66
2022-10-05T22:34:15.915Z,99531.57
2022-10-05T22:36:42.514Z,99534.93
2022-10-05T22:39:10.689Z,99541.13
2022-10-05T22:41:37.562Z,99541.66
2022-10-05T22:44:05.050Z,99541.05
2022-10-05T22:46:33.086Z,99542.70
2022-10-05T22:49:00.006Z,99544.23
2022-10-05T22:51:26.419Z,99547.50
2022-10-05T22:53:54.360Z,99549.32
2022-10-05T22:56:20.929Z,99554.71
2022-10-05T22:58:47.413Z,99553.73
2022-10-05T23:01:18.230Z,99552.90
2022-10-05T23:03:46.523Z,99552.08
2022-10-05T23:06:15.986Z,99553.74
2022-10-05T23:08:43.450Z,99551.50
2022-10-05T23:11:15.824Z,99558.02
2022-10-05T23:13:44.598Z,99564.74
2022-10-05T23:16:14.773Z,99564.63
2022-10-05T23:18:41.980Z,99568.91
2022-10-05T23:21:11.356Z,99567.80
2022-10-05T23:23:40.336Z,99567.85
2022-10-05T23:26:09.393Z,99569.27
2022-10-05T23:28:47.229Z,99574.56
2022-10-05T23:31:16.687Z,99571.42
2022-10-05T23:33:43.690Z,99571.12
2022-10-05T23:36:17.205Z,99570.64
2022-10-05T23:38:46.849Z,99575.32
2022-10-05T23:41:15.496Z,99576.13
2022-10-05T23:43:43.794Z,99579.76
2022-10-05T23:46:13.760Z,99582.71
2022-10-05T23:48:40.649Z,99586.67
2022-10-05T23:51:10.216Z,99588.66
2022-10-05T23:53:38.337Z,99586.22
2022-10-05T23:56:05.690Z,99587.52
2022-10-05T23:58:32.969Z,99582.83
